Terminal Aerodrome Forecast
Issued by NWS Sioux Falls, SD

Home | Current Version | Previous Version | Text Only | Print | Product List | Glossary Off
Versions: 1 2 3 4 5 6 7 8 9 10 11 12 13 14 15 16 17 18 19 20 21 22 23

416
FTUS43 KFSD 272320
TAFFSD
TAF
KFSD 272320Z 2800/2824 15007KT P6SM SCT070 BKN250
     FM280600 12005KT P6SM SCT100
     FM280900 06007KT 4SM BR OVC015
     FM281100 04006KT 2SM BR OVC007
     FM281500 02007KT P6SM OVC015=

USA.gov is the U.S. government's official web portal to all federal, state and local government web resources and services.